createdAt,value
2019-02-09T00:01:59.394Z,9.95
2019-02-09T00:07:56.406Z,11.20
2019-02-09T00:13:53.700Z,11.80
2019-02-09T00:19:51.179Z,11.83
2019-02-09T00:25:49.782Z,12.93
2019-02-09T00:31:47.633Z,13.70
2019-02-09T00:38:09.454Z,12.45
2019-02-09T00:44:04.709Z,11.35
2019-02-09T00:50:12.273Z,11.65
2019-02-09T00:56:07.786Z,11.48
2019-02-09T01:02:17.447Z,10.23
2019-02-09T01:08:18.227Z,11.12
2019-02-09T01:14:19.868Z,12.43
2019-02-09T01:17:02.488Z,10.10
2019-02-09T01:23:03.781Z,9.73
2019-02-09T01:29:04.279Z,9.83
2019-02-09T01:35:01.317Z,8.20
2019-02-09T01:41:09.532Z,7.62
2019-02-09T01:47:06.043Z,9.20
2019-02-09T01:52:53.537Z,9.60
2019-02-09T01:58:51.322Z,9.75
2019-02-09T02:04:48.763Z,10.82
2019-02-09T02:10:44.900Z,11.65
2019-02-09T02:16:54.770Z,10.90
2019-02-09T02:22:37.583Z,12.60
2019-02-09T02:28:47.045Z,12.90
2019-02-09T02:34:43.013Z,10.43
2019-02-09T02:40:54.598Z,9.80
2019-02-09T02:46:54.808Z,10.50
2019-02-09T02:52:41.028Z,9.45
2019-02-09T02:58:39.488Z,10.13
2019-02-09T03:04:35.305Z,8.85
2019-02-09T03:10:32.996Z,8.48
2019-02-09T03:16:29.197Z,9.38
2019-02-09T03:19:01.706Z,9.25
2019-02-09T03:24:58.452Z,9.55
2019-02-09T03:30:48.384Z,10.15
2019-02-09T03:36:41.220Z,9.85
2019-02-09T03:42:50.825Z,12.58
2019-02-09T03:48:35.235Z,10.20
2019-02-09T03:54:32.839Z,9.93
2019-02-09T04:00:44.625Z,11.38
2019-02-09T04:07:06.490Z,10.90
2019-02-09T04:13:14.803Z,13.43
2019-02-09T04:18:59.276Z,12.30
2019-02-09T04:24:54.408Z,12.10
2019-02-09T04:31:06.506Z,14.43
2019-02-09T04:37:27.282Z,13.35
2019-02-09T04:43:35.897Z,14.15
2019-02-09T04:49:18.306Z,15.63
2019-02-09T04:55:28.087Z,14.50
2019-02-09T05:01:27.416Z,16.52
2019-02-09T05:07:46.279Z,15.93
2019-02-09T05:13:45.070Z,13.93
2019-02-09T05:19:29.447Z,13.18
2019-02-09T05:25:39.865Z,14.73
2019-02-09T05:31:39.463Z,13.22
2019-02-09T05:37:47.314Z,11.50
2019-02-09T05:43:46.665Z,12.13
2019-02-09T05:49:55.365Z,13.53
2019-02-09T05:55:53.096Z,16.75
2019-02-09T06:01:50.620Z,16.60
2019-02-09T06:07:34.802Z,16.48
2019-02-09T06:13:33.341Z,20.08
2019-02-09T06:19:31.971Z,21.40
2019-02-09T06:25:29.223Z,19.50
2019-02-09T06:31:28.431Z,21.95
2019-02-09T06:37:27.239Z,22.27
2019-02-09T06:43:13.764Z,20.20
2019-02-09T06:49:02.337Z,19.67
2019-02-09T06:55:15.351Z,17.00
2019-02-09T07:01:11.663Z,18.57
2019-02-09T07:07:21.618Z,14.10
2019-02-09T07:13:24.141Z,14.05
2019-02-09T07:19:35.305Z,13.05
2019-02-09T07:25:34.143Z,13.68
2019-02-09T07:31:20.577Z,11.35
2019-02-09T07:37:20.398Z,11.97
2019-02-09T07:43:28.046Z,11.00
2019-02-09T07:49:26.094Z,16.07
2019-02-09T07:55:36.171Z,18.27
2019-02-09T08:01:31.789Z,18.32
2019-02-09T08:07:40.954Z,13.90
2019-02-09T08:13:38.933Z,14.78
2019-02-09T08:19:49.224Z,16.80
2019-02-09T08:25:47.181Z,16.00
2019-02-09T08:31:44.739Z,17.55
2019-02-09T08:37:48.913Z,16.37
2019-02-09T08:43:57.746Z,16.82
2019-02-09T08:49:46.199Z,15.78
2019-02-09T08:55:55.034Z,16.93
2019-02-09T09:01:50.574Z,16.75
2019-02-09T09:08:14.285Z,16.40
2019-02-09T09:14:14.710Z,16.85
2019-02-09T09:19:59.367Z,14.45
2019-02-09T09:26:10.033Z,15.60
2019-02-09T09:32:07.611Z,14.85
2019-02-09T09:38:16.255Z,15.58
2019-02-09T09:41:17.613Z,14.50
2019-02-09T09:47:03.941Z,14.47
2019-02-09T09:53:00.997Z,14.15
2019-02-09T09:59:09.668Z,14.58
2019-02-09T10:05:06.931Z,17.42
2019-02-09T10:11:05.474Z,16.80
2019-02-09T10:17:02.902Z,15.58
2019-02-09T10:22:48.220Z,18.52
2019-02-09T10:28:58.407Z,18.77
2019-02-09T10:34:53.856Z,18.75
2019-02-09T10:41:02.564Z,17.75
2019-02-09T10:46:58.200Z,18.32
2019-02-09T10:53:09.486Z,17.70
2019-02-09T10:59:11.324Z,18.20
2019-02-09T11:05:24.260Z,19.52
2019-02-09T11:11:24.995Z,19.02
2019-02-09T11:17:37.305Z,18.67
2019-02-09T11:23:23.444Z,19.98
2019-02-09T11:29:40.676Z,18.87
2019-02-09T11:35:39.064Z,18.48
2019-02-09T11:42:00.527Z,19.92
2019-02-09T11:47:58.277Z,19.67
2019-02-09T11:53:43.671Z,20.62
2019-02-09T11:59:45.191Z,20.00
2019-02-09T12:06:07.540Z,18.30
2019-02-09T12:12:17.746Z,21.35
2019-02-09T12:18:15.287Z,22.85
2019-02-09T12:23:51.171Z,22.27
2019-02-09T12:29:47.911Z,19.52
2019-02-09T12:35:57.776Z,20.00
2019-02-09T12:41:53.550Z,20.72
2019-02-09T12:47:55.678Z,20.60
2019-02-09T12:53:54.204Z,18.77
2019-02-09T13:00:08.945Z,18.32
2019-02-09T13:06:07.489Z,24.43
2019-02-09T13:12:19.360Z,20.75
2019-02-09T13:18:15.670Z,23.10
2019-02-09T13:24:14.422Z,21.60
2019-02-09T13:29:58.625Z,27.22
2019-02-09T13:36:10.191Z,26.37
2019-02-09T13:42:07.883Z,28.50
2019-02-09T13:47:52.500Z,27.17
2019-02-09T13:53:49.836Z,28.00
2019-02-09T13:59:50.367Z,27.05
2019-02-09T14:06:08.065Z,29.55
2019-02-09T14:12:08.758Z,27.75
2019-02-09T14:18:17.677Z,27.62
2019-02-09T14:24:16.193Z,27.20
2019-02-09T14:30:18.725Z,27.50
2019-02-09T14:36:16.743Z,28.05
2019-02-09T14:42:01.247Z,30.85
2019-02-09T14:47:34.981Z,25.72
2019-02-09T14:53:32.754Z,29.57
2019-02-09T14:59:41.152Z,31.33
2019-02-09T15:05:43.551Z,27.55
2019-02-09T15:11:56.446Z,28.30
2019-02-09T15:17:55.992Z,28.73
2019-02-09T15:23:53.305Z,28.27
2019-02-09T15:29:49.658Z,26.70
2019-02-09T15:35:48.408Z,28.47
2019-02-09T15:41:44.949Z,24.02
2019-02-09T15:44:18.664Z,25.70
2019-02-09T15:50:16.982Z,27.40
2019-02-09T15:56:13.520Z,25.55
2019-02-09T16:02:12.816Z,39.95
2019-02-09T16:07:47.797Z,38.30
2019-02-09T16:13:49.897Z,38.28
2019-02-09T16:19:54.509Z,32.60
2019-02-09T16:25:41.045Z,62.13
2019-02-09T16:31:37.046Z,66.57
2019-02-09T16:37:48.439Z,38.67
2019-02-09T16:43:56.713Z,36.75
2019-02-09T16:49:43.594Z,46.42
2019-02-09T16:55:43.939Z,44.70
2019-02-09T17:01:51.511Z,46.20
2019-02-09T17:07:49.056Z,46.70
2019-02-09T17:13:59.727Z,51.23
2019-02-09T17:19:58.308Z,58.87
2019-02-09T17:26:18.702Z,110.20
2019-02-09T17:32:16.583Z,53.48
2019-02-09T17:38:13.394Z,42.75
2019-02-09T17:43:57.665Z,32.95
2019-02-09T17:49:53.044Z,24.50
2019-02-09T17:56:09.489Z,24.65
2019-02-09T18:02:09.371Z,24.65
2019-02-09T18:08:17.758Z,25.92
2019-02-09T18:14:12.720Z,27.30
2019-02-09T18:20:36.190Z,26.68
2019-02-09T18:26:20.705Z,28.92
2019-02-09T18:32:18.276Z,27.32
2019-02-09T18:38:28.948Z,30.50
2019-02-09T18:44:14.269Z,50.28
2019-02-09T18:50:36.327Z,53.20
2019-02-09T18:56:34.466Z,51.45
2019-02-09T19:02:41.295Z,48.83
2019-02-09T19:08:37.858Z,47.62
2019-02-09T19:14:33.795Z,59.53
2019-02-09T19:20:41.021Z,67.17
2019-02-09T19:26:50.145Z,67.15
2019-02-09T19:32:45.602Z,56.58
2019-02-09T19:38:57.912Z,62.45
2019-02-09T19:44:44.212Z,85.25
2019-02-09T19:50:53.176Z,65.55
2019-02-09T19:56:49.211Z,66.62
2019-02-09T20:03:11.233Z,68.20
2019-02-09T20:09:09.793Z,62.53
2019-02-09T20:15:08.989Z,56.28
2019-02-09T20:21:06.890Z,58.95
2019-02-09T20:27:16.722Z,55.75
2019-02-09T20:33:15.128Z,59.18
2019-02-09T20:39:04.714Z,64.05
2019-02-09T20:44:37.128Z,57.73
2019-02-09T20:50:48.527Z,55.25
2019-02-09T20:56:47.083Z,51.77
2019-02-09T21:02:32.738Z,55.85
2019-02-09T21:08:36.138Z,60.15
2019-02-09T21:14:48.855Z,67.67
2019-02-09T21:20:49.772Z,56.37
2019-02-09T21:26:57.593Z,57.35
2019-02-09T21:32:55.549Z,54.30
2019-02-09T21:39:05.237Z,46.85
2019-02-09T21:45:02.989Z,42.80
2019-02-09T21:51:02.310Z,45.88
2019-02-09T21:57:24.335Z,41.23
2019-02-09T22:03:21.876Z,50.33
2019-02-09T22:09:30.274Z,51.70
2019-02-09T22:15:16.703Z,59.80
2019-02-09T22:21:02.345Z,68.80
2019-02-09T22:27:10.844Z,82.15
2019-02-09T22:33:07.383Z,81.17
2019-02-09T22:39:15.692Z,80.90
2019-02-09T22:45:13.491Z,66.80
2019-02-09T22:51:11.677Z,56.70
2019-02-09T22:57:31.789Z,60.73
2019-02-09T23:03:18.234Z,60.58
2019-02-09T23:09:28.928Z,52.08
2019-02-09T23:15:42.565Z,50.95
2019-02-09T23:21:27.855Z,51.73
2019-02-09T23:27:25.908Z,52.03
2019-02-09T23:33:25.123Z,68.47
2019-02-09T23:39:25.375Z,93.87
2019-02-09T23:45:33.753Z,99.62
2019-02-09T23:51:07.717Z,100.92
2019-02-09T23:57:05.216Z,96.28
